createdAt,value
2024-04-06T00:02:28.324Z,3.249
2024-04-06T00:17:39.238Z,3.249
2024-04-06T00:32:50.283Z,3.249
2024-04-06T00:48:01.753Z,3.247
2024-04-06T01:03:13.284Z,3.249
2024-04-06T01:18:24.716Z,3.246
2024-04-06T01:33:36.390Z,3.246
2024-04-06T01:48:48.185Z,3.246
2024-04-06T02:03:59.667Z,3.25
2024-04-06T02:19:10.816Z,3.247
2024-04-06T02:34:22.018Z,3.25
2024-04-06T02:49:33.376Z,3.25
2024-04-06T03:04:44.255Z,3.25
2024-04-06T03:19:55.091Z,3.25
2024-04-06T03:35:06.514Z,3.247
2024-04-06T03:50:17.833Z,3.252
2024-04-06T04:05:29.228Z,3.247
2024-04-06T04:20:40.611Z,3.246
2024-04-06T04:35:52.396Z,3.246
2024-04-06T05:06:14.400Z,3.247
2024-04-06T05:21:25.958Z,3.252
2024-04-06T05:36:37.303Z,3.25
2024-04-06T05:51:48.271Z,3.245
2024-04-06T06:06:59.473Z,3.243
2024-04-06T06:22:11.031Z,3.242
2024-04-06T06:37:22.777Z,3.241
2024-04-06T06:52:33.808Z,3.243
2024-04-06T07:07:45.481Z,3.242
2024-04-06T07:22:56.933Z,3.239
2024-04-06T07:38:08.289Z,3.242
2024-04-06T07:53:19.518Z,3.238
2024-04-06T08:08:30.414Z,3.238
2024-04-06T08:23:41.324Z,3.238
2024-04-06T08:38:52.902Z,3.236
2024-04-06T08:54:04.037Z,3.236
2024-04-06T09:09:15.566Z,3.236
2024-04-06T09:24:27.239Z,3.236
2024-04-06T09:39:38.414Z,3.238
2024-04-06T09:54:50.188Z,3.239
2024-04-06T10:10:01.314Z,3.239
2024-04-06T10:25:12.529Z,3.238
2024-04-06T10:40:24.159Z,3.239
2024-04-06T10:55:35.668Z,3.239
2024-04-06T11:10:46.638Z,3.239
2024-04-06T11:25:58.088Z,3.241
2024-04-06T11:41:09.362Z,3.241
2024-04-06T11:56:20.316Z,3.241
2024-04-06T12:11:31.540Z,3.238
2024-04-06T12:26:43.069Z,3.236
2024-04-06T12:41:54.528Z,3.238
2024-04-06T12:57:06.036Z,3.238
2024-04-06T13:12:17.301Z,3.238
2024-04-06T13:27:28.549Z,3.239
2024-04-06T13:42:40.000Z,3.238
2024-04-06T13:57:51.768Z,3.238
2024-04-06T14:13:02.674Z,3.236
2024-04-06T14:28:14.203Z,3.238
2024-04-06T14:43:25.754Z,3.238
2024-04-06T14:58:37.087Z,3.238
2024-04-06T15:13:48.201Z,3.238
2024-04-06T15:28:59.273Z,3.235
2024-04-06T15:44:11.080Z,3.238
2024-04-06T15:59:53.443Z,3.252
2024-04-06T16:15:36.223Z,3.247
2024-04-06T16:31:18.199Z,3.241
2024-04-06T16:47:00.139Z,3.238
2024-04-06T16:47:47.341Z,3.232
2024-04-06T17:03:29.924Z,3.234
2024-04-06T17:19:12.719Z,3.231
2024-04-06T17:34:55.356Z,3.221
2024-04-06T17:50:37.388Z,3.22
2024-04-06T18:06:19.377Z,3.218
2024-04-06T18:22:01.517Z,3.216
2024-04-06T18:37:44.287Z,3.214
2024-04-06T18:53:26.323Z,3.213
2024-04-06T19:09:09.113Z,3.214
2024-04-06T19:24:51.083Z,3.213
2024-04-06T19:40:33.900Z,3.21
2024-04-06T19:56:16.046Z,3.209
2024-04-06T20:11:58.336Z,3.212
2024-04-06T20:27:41.253Z,3.21
2024-04-06T20:43:23.408Z,3.212
2024-04-06T20:59:06.134Z,3.207
2024-04-06T21:14:48.723Z,3.21
2024-04-06T21:30:31.093Z,3.21
2024-04-06T21:46:13.641Z,3.207
2024-04-06T22:01:55.674Z,3.206
2024-04-06T22:17:37.767Z,3.206
2024-04-06T22:33:20.416Z,3.209
2024-04-06T22:49:02.464Z,3.207
2024-04-06T23:04:44.482Z,3.206
2024-04-06T23:20:26.906Z,3.207
2024-04-06T23:36:09.070Z,3.205
2024-04-06T23:51:51.334Z,3.205
